sensor_id;sensor_type;location;lat;lon;timestamp;P1;durP1;ratioP1;P2;durP2;ratioP2
12383;SDS011;6256;63.808;20.336;2024-02-16T00:00:58;1.27;;;1.03;;
12383;SDS011;6256;63.808;20.336;2024-02-16T00:03:24;0.80;;;0.80;;
12383;SDS011;6256;63.808;20.336;2024-02-16T00:05:51;2.10;;;0.73;;
12383;SDS011;6256;63.808;20.336;2024-02-16T00:08:18;1.13;;;1.03;;
12383;SDS011;6256;63.808;20.336;2024-02-16T00:10:45;1.43;;;1.17;;
12383;SDS011;6256;63.808;20.336;2024-02-16T00:13:11;1.70;;;1.10;;
12383;SDS011;6256;63.808;20.336;2024-02-16T00:15:37;1.33;;;1.23;;
12383;SDS011;6256;63.808;20.336;2024-02-16T00:18:06;1.30;;;1.20;;
12383;SDS011;6256;63.808;20.336;2024-02-16T00:20:32;2.10;;;1.20;;
12383;SDS011;6256;63.808;20.336;2024-02-16T00:22:58;1.57;;;1.40;;
12383;SDS011;6256;63.808;20.336;2024-02-16T00:25:25;1.50;;;1.40;;
12383;SDS011;6256;63.808;20.336;2024-02-16T00:27:51;2.20;;;1.30;;
12383;SDS011;6256;63.808;20.336;2024-02-16T00:30:19;2.00;;;1.20;;
12383;SDS011;6256;63.808;20.336;2024-02-16T00:32:46;1.50;;;1.40;;
12383;SDS011;6256;63.808;20.336;2024-02-16T00:35:12;1.60;;;1.30;;
12383;SDS011;6256;63.808;20.336;2024-02-16T00:37:41;3.33;;;1.50;;
12383;SDS011;6256;63.808;20.336;2024-02-16T00:40:07;1.40;;;1.30;;
12383;SDS011;6256;63.808;20.336;2024-02-16T00:42:33;1.27;;;1.10;;
12383;SDS011;6256;63.808;20.336;2024-02-16T00:44:59;1.10;;;1.00;;
12383;SDS011;6256;63.808;20.336;2024-02-16T00:47:25;0.73;;;0.73;;
12383;SDS011;6256;63.808;20.336;2024-02-16T00:49:54;1.00;;;1.00;;
12383;SDS011;6256;63.808;20.336;2024-02-16T00:52:21;0.90;;;0.90;;
12383;SDS011;6256;63.808;20.336;2024-02-16T00:54:47;1.00;;;1.00;;
12383;SDS011;6256;63.808;20.336;2024-02-16T00:57:13;0.50;;;0.50;;
12383;SDS011;6256;63.808;20.336;2024-02-16T00:59:40;0.83;;;0.83;;
12383;SDS011;6256;63.808;20.336;2024-02-16T01:02:06;1.00;;;0.93;;
12383;SDS011;6256;63.808;20.336;2024-02-16T01:04:32;0.77;;;0.77;;
12383;SDS011;6256;63.808;20.336;2024-02-16T01:06:58;0.87;;;0.80;;
12383;SDS011;6256;63.808;20.336;2024-02-16T01:09:24;3.50;;;0.83;;
12383;SDS011;6256;63.808;20.336;2024-02-16T01:11:50;0.70;;;0.70;;
12383;SDS011;6256;63.808;20.336;2024-02-16T01:14:15;0.70;;;0.70;;
12383;SDS011;6256;63.808;20.336;2024-02-16T01:16:41;0.80;;;0.80;;
12383;SDS011;6256;63.808;20.336;2024-02-16T01:19:07;2.10;;;0.80;;
12383;SDS011;6256;63.808;20.336;2024-02-16T01:21:34;0.77;;;0.77;;
12383;SDS011;6256;63.808;20.336;2024-02-16T01:24:00;0.70;;;0.70;;
12383;SDS011;6256;63.808;20.336;2024-02-16T01:26:26;1.17;;;0.73;;
12383;SDS011;6256;63.808;20.336;2024-02-16T01:28:53;1.20;;;1.10;;
12383;SDS011;6256;63.808;20.336;2024-02-16T01:31:19;0.97;;;0.70;;
12383;SDS011;6256;63.808;20.336;2024-02-16T01:33:44;1.03;;;0.80;;
12383;SDS011;6256;63.808;20.336;2024-02-16T01:36:10;1.13;;;0.97;;
12383;SDS011;6256;63.808;20.336;2024-02-16T01:38:36;0.70;;;0.70;;
12383;SDS011;6256;63.808;20.336;2024-02-16T01:41:05;0.77;;;0.77;;
12383;SDS011;6256;63.808;20.336;2024-02-16T01:43:32;0.80;;;0.73;;
12383;SDS011;6256;63.808;20.336;2024-02-16T01:45:58;1.03;;;0.67;;
12383;SDS011;6256;63.808;20.336;2024-02-16T01:48:24;0.80;;;0.80;;
12383;SDS011;6256;63.808;20.336;2024-02-16T01:50:51;0.57;;;0.57;;
12383;SDS011;6256;63.808;20.336;2024-02-16T01:53:18;0.80;;;0.80;;
12383;SDS011;6256;63.808;20.336;2024-02-16T01:55:46;1.00;;;0.90;;
12383;SDS011;6256;63.808;20.336;2024-02-16T01:58:12;1.03;;;0.70;;
12383;SDS011;6256;63.808;20.336;2024-02-16T02:00:37;0.63;;;0.63;;
12383;SDS011;6256;63.808;20.336;2024-02-16T02:03:05;0.77;;;0.77;;
12383;SDS011;6256;63.808;20.336;2024-02-16T02:05:31;1.50;;;1.03;;
12383;SDS011;6256;63.808;20.336;2024-02-16T02:07:57;0.60;;;0.60;;
12383;SDS011;6256;63.808;20.336;2024-02-16T02:10:23;0.80;;;0.80;;
12383;SDS011;6256;63.808;20.336;2024-02-16T02:12:49;1.23;;;1.23;;
12383;SDS011;6256;63.808;20.336;2024-02-16T02:15:15;0.60;;;0.60;;
12383;SDS011;6256;63.808;20.336;2024-02-16T02:17:40;0.30;;;0.30;;
12383;SDS011;6256;63.808;20.336;2024-02-16T02:20:06;0.90;;;0.70;;
12383;SDS011;6256;63.808;20.336;2024-02-16T02:22:35;0.83;;;0.83;;
12383;SDS011;6256;63.808;20.336;2024-02-16T02:25:04;0.50;;;0.50;;
12383;SDS011;6256;63.808;20.336;2024-02-16T02:27:30;1.03;;;0.83;;
12383;SDS011;6256;63.808;20.336;2024-02-16T02:29:56;1.07;;;0.90;;
12383;SDS011;6256;63.808;20.336;2024-02-16T02:32:23;0.70;;;0.70;;
12383;SDS011;6256;63.808;20.336;2024-02-16T02:34:48;0.73;;;0.73;;
12383;SDS011;6256;63.808;20.336;2024-02-16T02:37:14;0.70;;;0.70;;
12383;SDS011;6256;63.808;20.336;2024-02-16T02:39:40;0.60;;;0.60;;
12383;SDS011;6256;63.808;20.336;2024-02-16T02:42:06;0.53;;;0.53;;
12383;SDS011;6256;63.808;20.336;2024-02-16T02:44:33;0.50;;;0.50;;
12383;SDS011;6256;63.808;20.336;2024-02-16T02:46:58;0.97;;;0.97;;
12383;SDS011;6256;63.808;20.336;2024-02-16T02:49:24;0.80;;;0.80;;
12383;SDS011;6256;63.808;20.336;2024-02-16T02:51:50;0.80;;;0.63;;
12383;SDS011;6256;63.808;20.336;2024-02-16T02:54:15;0.63;;;0.57;;
12383;SDS011;6256;63.808;20.336;2024-02-16T02:56:41;2.53;;;0.97;;
12383;SDS011;6256;63.808;20.336;2024-02-16T02:59:07;0.77;;;0.50;;
12383;SDS011;6256;63.808;20.336;2024-02-16T03:01:34;0.67;;;0.63;;
12383;SDS011;6256;63.808;20.336;2024-02-16T03:04:00;1.43;;;0.87;;
12383;SDS011;6256;63.808;20.336;2024-02-16T03:06:26;1.33;;;0.90;;
12383;SDS011;6256;63.808;20.336;2024-02-16T03:08:52;1.07;;;0.93;;
12383;SDS011;6256;63.808;20.336;2024-02-16T03:11:18;0.80;;;0.80;;
12383;SDS011;6256;63.808;20.336;2024-02-16T03:13:43;0.97;;;0.97;;
12383;SDS011;6256;63.808;20.336;2024-02-16T03:16:09;1.63;;;1.10;;
12383;SDS011;6256;63.808;20.336;2024-02-16T03:18:35;1.57;;;1.00;;
12383;SDS011;6256;63.808;20.336;2024-02-16T03:21:01;1.60;;;1.50;;
12383;SDS011;6256;63.808;20.336;2024-02-16T03:23:27;0.77;;;0.77;;
12383;SDS011;6256;63.808;20.336;2024-02-16T03:25:53;1.37;;;1.13;;
12383;SDS011;6256;63.808;20.336;2024-02-16T03:28:18;0.90;;;0.90;;
12383;SDS011;6256;63.808;20.336;2024-02-16T03:30:45;0.90;;;0.90;;
12383;SDS011;6256;63.808;20.336;2024-02-16T03:33:12;0.73;;;0.73;;
12383;SDS011;6256;63.808;20.336;2024-02-16T03:35:38;1.37;;;1.27;;
12383;SDS011;6256;63.808;20.336;2024-02-16T03:38:05;0.90;;;0.90;;
12383;SDS011;6256;63.808;20.336;2024-02-16T03:40:31;4.53;;;1.37;;
12383;SDS011;6256;63.808;20.336;2024-02-16T03:42:57;1.90;;;1.50;;
12383;SDS011;6256;63.808;20.336;2024-02-16T03:45:23;1.43;;;1.33;;
12383;SDS011;6256;63.808;20.336;2024-02-16T03:47:49;1.57;;;1.37;;
12383;SDS011;6256;63.808;20.336;2024-02-16T03:50:17;3.10;;;1.57;;
12383;SDS011;6256;63.808;20.336;2024-02-16T03:52:44;3.20;;;1.50;;
12383;SDS011;6256;63.808;20.336;2024-02-16T03:55:09;2.73;;;2.10;;
12383;SDS011;6256;63.808;20.336;2024-02-16T03:57:37;1.37;;;1.27;;
12383;SDS011;6256;63.808;20.336;2024-02-16T04:00:04;4.40;;;2.70;;
12383;SDS011;6256;63.808;20.336;2024-02-16T04:02:31;2.93;;;1.67;;
12383;SDS011;6256;63.808;20.336;2024-02-16T04:04:57;2.47;;;2.03;;
12383;SDS011;6256;63.808;20.336;2024-02-16T04:07:22;4.73;;;2.37;;
12383;SDS011;6256;63.808;20.336;2024-02-16T04:09:48;2.47;;;2.13;;
12383;SDS011;6256;63.808;20.336;2024-02-16T04:12:14;2.60;;;1.80;;
12383;SDS011;6256;63.808;20.336;2024-02-16T04:14:40;2.53;;;1.73;;
12383;SDS011;6256;63.808;20.336;2024-02-16T04:17:06;3.33;;;1.87;;
12383;SDS011;6256;63.808;20.336;2024-02-16T04:19:32;1.87;;;1.60;;
12383;SDS011;6256;63.808;20.336;2024-02-16T04:21:58;4.00;;;2.23;;
12383;SDS011;6256;63.808;20.336;2024-02-16T04:24:24;3.60;;;1.83;;
12383;SDS011;6256;63.808;20.336;2024-02-16T04:26:49;2.77;;;1.73;;
12383;SDS011;6256;63.808;20.336;2024-02-16T04:29:15;2.20;;;1.33;;
12383;SDS011;6256;63.808;20.336;2024-02-16T04:31:41;2.63;;;1.47;;
12383;SDS011;6256;63.808;20.336;2024-02-16T04:34:08;2.60;;;1.60;;
12383;SDS011;6256;63.808;20.336;2024-02-16T04:36:34;3.23;;;1.63;;
12383;SDS011;6256;63.808;20.336;2024-02-16T04:39:00;3.57;;;1.80;;
12383;SDS011;6256;63.808;20.336;2024-02-16T04:41:26;2.47;;;1.30;;
12383;SDS011;6256;63.808;20.336;2024-02-16T04:43:52;1.80;;;1.70;;
12383;SDS011;6256;63.808;20.336;2024-02-16T04:46:18;3.50;;;1.83;;
12383;SDS011;6256;63.808;20.336;2024-02-16T04:48:44;1.97;;;1.60;;
12383;SDS011;6256;63.808;20.336;2024-02-16T04:51:10;1.40;;;1.30;;
12383;SDS011;6256;63.808;20.336;2024-02-16T04:53:36;1.30;;;1.20;;
12383;SDS011;6256;63.808;20.336;2024-02-16T04:56:05;1.47;;;1.37;;
12383;SDS011;6256;63.808;20.336;2024-02-16T04:58:31;1.53;;;1.43;;
12383;SDS011;6256;63.808;20.336;2024-02-16T05:00:58;2.30;;;1.50;;
12383;SDS011;6256;63.808;20.336;2024-02-16T05:03:24;1.30;;;1.20;;
12383;SDS011;6256;63.808;20.336;2024-02-16T05:05:50;1.43;;;1.23;;
12383;SDS011;6256;63.808;20.336;2024-02-16T05:08:17;2.13;;;1.77;;
12383;SDS011;6256;63.808;20.336;2024-02-16T05:10:43;2.10;;;1.90;;
12383;SDS011;6256;63.808;20.336;2024-02-16T05:13:08;2.20;;;1.87;;
12383;SDS011;6256;63.808;20.336;2024-02-16T05:15:36;2.50;;;1.70;;
12383;SDS011;6256;63.808;20.336;2024-02-16T05:18:02;2.33;;;2.13;;
12383;SDS011;6256;63.808;20.336;2024-02-16T05:20:28;2.73;;;1.87;;
12383;SDS011;6256;63.808;20.336;2024-02-16T05:22:53;2.20;;;1.77;;
12383;SDS011;6256;63.808;20.336;2024-02-16T05:25:19;3.57;;;2.13;;
12383;SDS011;6256;63.808;20.336;2024-02-16T05:27:45;4.07;;;2.03;;
12383;SDS011;6256;63.808;20.336;2024-02-16T05:30:12;2.60;;;1.47;;
12383;SDS011;6256;63.808;20.336;2024-02-16T05:32:40;3.00;;;1.80;;
12383;SDS011;6256;63.808;20.336;2024-02-16T05:35:09;2.60;;;2.00;;
12383;SDS011;6256;63.808;20.336;2024-02-16T05:37:45;3.10;;;2.27;;
12383;SDS011;6256;63.808;20.336;2024-02-16T05:40:16;6.07;;;2.90;;
12383;SDS011;6256;63.808;20.336;2024-02-16T05:42:55;2.87;;;1.93;;
12383;SDS011;6256;63.808;20.336;2024-02-16T05:45:23;2.37;;;1.93;;
12383;SDS011;6256;63.808;20.336;2024-02-16T05:47:49;2.67;;;1.77;;
12383;SDS011;6256;63.808;20.336;2024-02-16T05:50:16;3.07;;;2.30;;
12383;SDS011;6256;63.808;20.336;2024-02-16T05:52:42;3.13;;;2.20;;
12383;SDS011;6256;63.808;20.336;2024-02-16T05:55:09;2.73;;;2.30;;
12383;SDS011;6256;63.808;20.336;2024-02-16T05:57:35;2.23;;;2.03;;
12383;SDS011;6256;63.808;20.336;2024-02-16T06:00:05;4.77;;;2.80;;
12383;SDS011;6256;63.808;20.336;2024-02-16T06:02:33;2.60;;;2.00;;
12383;SDS011;6256;63.808;20.336;2024-02-16T06:04:59;3.20;;;2.77;;
12383;SDS011;6256;63.808;20.336;2024-02-16T06:07:26;4.67;;;2.40;;
12383;SDS011;6256;63.808;20.336;2024-02-16T06:09:51;3.47;;;2.00;;
12383;SDS011;6256;63.808;20.336;2024-02-16T06:12:19;3.03;;;2.20;;
12383;SDS011;6256;63.808;20.336;2024-02-16T06:14:45;4.20;;;2.07;;
12383;SDS011;6256;63.808;20.336;2024-02-16T06:17:13;4.67;;;2.60;;
12383;SDS011;6256;63.808;20.336;2024-02-16T06:19:42;4.83;;;2.17;;
12383;SDS011;6256;63.808;20.336;2024-02-16T06:22:08;3.60;;;2.10;;
12383;SDS011;6256;63.808;20.336;2024-02-16T06:24:34;4.30;;;2.73;;
12383;SDS011;6256;63.808;20.336;2024-02-16T06:27:01;5.03;;;2.70;;
12383;SDS011;6256;63.808;20.336;2024-02-16T06:29:26;2.57;;;2.37;;
12383;SDS011;6256;63.808;20.336;2024-02-16T06:31:53;2.93;;;2.47;;
12383;SDS011;6256;63.808;20.336;2024-02-16T06:34:19;5.33;;;2.63;;
12383;SDS011;6256;63.808;20.336;2024-02-16T06:36:48;5.70;;;2.60;;
12383;SDS011;6256;63.808;20.336;2024-02-16T06:39:14;3.73;;;2.53;;
12383;SDS011;6256;63.808;20.336;2024-02-16T06:41:45;3.73;;;2.23;;
12383;SDS011;6256;63.808;20.336;2024-02-16T06:44:14;4.30;;;2.00;;
12383;SDS011;6256;63.808;20.336;2024-02-16T06:46:41;4.80;;;2.53;;
12383;SDS011;6256;63.808;20.336;2024-02-16T06:49:07;8.03;;;3.00;;
12383;SDS011;6256;63.808;20.336;2024-02-16T06:51:33;5.77;;;2.37;;
12383;SDS011;6256;63.808;20.336;2024-02-16T06:53:59;3.07;;;1.73;;
12383;SDS011;6256;63.808;20.336;2024-02-16T06:56:25;6.27;;;2.70;;
12383;SDS011;6256;63.808;20.336;2024-02-16T06:58:51;4.67;;;2.70;;
12383;SDS011;6256;63.808;20.336;2024-02-16T07:01:17;5.23;;;1.90;;
12383;SDS011;6256;63.808;20.336;2024-02-16T07:03:45;6.67;;;1.97;;
12383;SDS011;6256;63.808;20.336;2024-02-16T07:06:11;4.97;;;2.60;;
12383;SDS011;6256;63.808;20.336;2024-02-16T07:08:42;5.27;;;2.50;;
12383;SDS011;6256;63.808;20.336;2024-02-16T07:11:08;4.40;;;2.20;;
12383;SDS011;6256;63.808;20.336;2024-02-16T07:13:38;4.57;;;2.23;;
12383;SDS011;6256;63.808;20.336;2024-02-16T07:16:10;5.77;;;2.60;;
12383;SDS011;6256;63.808;20.336;2024-02-16T07:18:36;3.03;;;2.07;;
12383;SDS011;6256;63.808;20.336;2024-02-16T07:21:02;5.33;;;2.50;;
12383;SDS011;6256;63.808;20.336;2024-02-16T07:23:28;2.83;;;2.20;;
12383;SDS011;6256;63.808;20.336;2024-02-16T07:25:54;3.50;;;2.33;;
12383;SDS011;6256;63.808;20.336;2024-02-16T07:28:22;4.47;;;2.40;;
12383;SDS011;6256;63.808;20.336;2024-02-16T07:30:48;4.27;;;2.43;;
12383;SDS011;6256;63.808;20.336;2024-02-16T07:33:14;2.57;;;2.00;;
12383;SDS011;6256;63.808;20.336;2024-02-16T07:35:40;3.97;;;2.30;;
12383;SDS011;6256;63.808;20.336;2024-02-16T07:38:05;6.83;;;3.13;;
12383;SDS011;6256;63.808;20.336;2024-02-16T07:40:32;4.53;;;1.73;;
12383;SDS011;6256;63.808;20.336;2024-02-16T07:42:58;3.70;;;2.73;;
12383;SDS011;6256;63.808;20.336;2024-02-16T07:45:23;3.37;;;1.93;;
12383;SDS011;6256;63.808;20.336;2024-02-16T07:47:50;3.90;;;2.23;;
12383;SDS011;6256;63.808;20.336;2024-02-16T07:50:19;4.90;;;2.77;;
12383;SDS011;6256;63.808;20.336;2024-02-16T07:52:49;6.40;;;2.40;;
12383;SDS011;6256;63.808;20.336;2024-02-16T07:55:15;3.87;;;2.73;;
12383;SDS011;6256;63.808;20.336;2024-02-16T07:57:43;3.70;;;2.47;;
12383;SDS011;6256;63.808;20.336;2024-02-16T08:00:10;7.13;;;3.37;;
12383;SDS011;6256;63.808;20.336;2024-02-16T08:02:36;4.50;;;3.23;;
12383;SDS011;6256;63.808;20.336;2024-02-16T08:05:02;9.50;;;2.90;;
12383;SDS011;6256;63.808;20.336;2024-02-16T08:07:28;9.33;;;3.23;;
12383;SDS011;6256;63.808;20.336;2024-02-16T08:09:53;8.50;;;3.60;;
12383;SDS011;6256;63.808;20.336;2024-02-16T08:12:19;8.50;;;2.83;;
12383;SDS011;6256;63.808;20.336;2024-02-16T08:14:46;6.97;;;2.57;;
12383;SDS011;6256;63.808;20.336;2024-02-16T08:17:12;4.80;;;2.63;;
12383;SDS011;6256;63.808;20.336;2024-02-16T08:19:38;8.30;;;2.73;;
12383;SDS011;6256;63.808;20.336;2024-02-16T08:22:05;5.27;;;2.40;;
12383;SDS011;6256;63.808;20.336;2024-02-16T08:24:33;5.23;;;3.60;;
12383;SDS011;6256;63.808;20.336;2024-02-16T08:27:02;6.07;;;3.20;;
12383;SDS011;6256;63.808;20.336;2024-02-16T08:29:31;10.40;;;3.23;;
12383;SDS011;6256;63.808;20.336;2024-02-16T08:31:57;6.57;;;3.27;;
12383;SDS011;6256;63.808;20.336;2024-02-16T08:34:23;11.37;;;2.93;;
12383;SDS011;6256;63.808;20.336;2024-02-16T08:36:51;8.57;;;3.73;;
12383;SDS011;6256;63.808;20.336;2024-02-16T08:39:16;13.67;;;4.37;;
12383;SDS011;6256;63.808;20.336;2024-02-16T08:41:45;4.83;;;3.07;;
12383;SDS011;6256;63.808;20.336;2024-02-16T08:44:13;7.30;;;4.17;;
12383;SDS011;6256;63.808;20.336;2024-02-16T08:46:39;5.03;;;3.63;;
12383;SDS011;6256;63.808;20.336;2024-02-16T08:49:05;7.47;;;3.80;;
12383;SDS011;6256;63.808;20.336;2024-02-16T08:51:32;11.87;;;4.13;;
12383;SDS011;6256;63.808;20.336;2024-02-16T08:53:58;5.00;;;2.97;;
12383;SDS011;6256;63.808;20.336;2024-02-16T08:56:25;8.93;;;4.27;;
12383;SDS011;6256;63.808;20.336;2024-02-16T08:58:50;10.47;;;3.63;;
12383;SDS011;6256;63.808;20.336;2024-02-16T09:01:16;6.17;;;3.47;;
12383;SDS011;6256;63.808;20.336;2024-02-16T09:03:42;7.90;;;4.87;;
12383;SDS011;6256;63.808;20.336;2024-02-16T09:06:08;7.17;;;3.50;;
12383;SDS011;6256;63.808;20.336;2024-02-16T09:08:34;10.50;;;3.87;;
12383;SDS011;6256;63.808;20.336;2024-02-16T09:11:00;9.50;;;4.93;;
12383;SDS011;6256;63.808;20.336;2024-02-16T09:13:30;10.60;;;4.10;;
12383;SDS011;6256;63.808;20.336;2024-02-16T09:16:04;8.03;;;4.03;;
12383;SDS011;6256;63.808;20.336;2024-02-16T09:18:30;4.53;;;2.70;;
12383;SDS011;6256;63.808;20.336;2024-02-16T09:20:56;9.83;;;3.53;;
12383;SDS011;6256;63.808;20.336;2024-02-16T09:23:22;9.07;;;3.47;;
12383;SDS011;6256;63.808;20.336;2024-02-16T09:25:48;6.50;;;4.30;;
12383;SDS011;6256;63.808;20.336;2024-02-16T09:28:14;7.23;;;4.33;;
12383;SDS011;6256;63.808;20.336;2024-02-16T09:30:40;8.13;;;3.23;;
12383;SDS011;6256;63.808;20.336;2024-02-16T09:33:06;5.57;;;3.70;;
12383;SDS011;6256;63.808;20.336;2024-02-16T09:35:32;5.23;;;2.40;;
12383;SDS011;6256;63.808;20.336;2024-02-16T09:37:58;6.00;;;2.80;;
12383;SDS011;6256;63.808;20.336;2024-02-16T09:40:24;8.13;;;3.43;;
12383;SDS011;6256;63.808;20.336;2024-02-16T09:42:50;5.87;;;3.40;;
12383;SDS011;6256;63.808;20.336;2024-02-16T09:45:16;4.20;;;3.03;;
12383;SDS011;6256;63.808;20.336;2024-02-16T09:47:45;5.63;;;3.57;;
12383;SDS011;6256;63.808;20.336;2024-02-16T09:50:14;8.60;;;3.97;;
12383;SDS011;6256;63.808;20.336;2024-02-16T09:52:41;4.83;;;2.97;;
12383;SDS011;6256;63.808;20.336;2024-02-16T09:55:12;5.57;;;2.93;;
12383;SDS011;6256;63.808;20.336;2024-02-16T09:57:39;6.73;;;3.90;;
12383;SDS011;6256;63.808;20.336;2024-02-16T10:00:04;6.93;;;3.90;;
12383;SDS011;6256;63.808;20.336;2024-02-16T10:02:43;4.97;;;3.13;;
12383;SDS011;6256;63.808;20.336;2024-02-16T10:05:19;4.97;;;2.57;;
12383;SDS011;6256;63.808;20.336;2024-02-16T10:07:46;5.90;;;3.70;;
12383;SDS011;6256;63.808;20.336;2024-02-16T10:10:25;4.97;;;2.37;;
12383;SDS011;6256;63.808;20.336;2024-02-16T10:13:02;3.40;;;2.83;;
12383;SDS011;6256;63.808;20.336;2024-02-16T10:15:29;6.10;;;2.80;;
12383;SDS011;6256;63.808;20.336;2024-02-16T10:18:01;4.20;;;2.87;;
12383;SDS011;6256;63.808;20.336;2024-02-16T10:20:28;3.93;;;2.70;;
12383;SDS011;6256;63.808;20.336;2024-02-16T10:23:10;5.47;;;3.40;;
12383;SDS011;6256;63.808;20.336;2024-02-16T10:25:40;3.53;;;3.13;;
12383;SDS011;6256;63.808;20.336;2024-02-16T10:28:09;4.87;;;3.13;;
12383;SDS011;6256;63.808;20.336;2024-02-16T10:30:41;6.13;;;2.97;;
12383;SDS011;6256;63.808;20.336;2024-02-16T10:33:09;4.93;;;2.77;;
12383;SDS011;6256;63.808;20.336;2024-02-16T10:35:37;4.67;;;2.90;;
12383;SDS011;6256;63.808;20.336;2024-02-16T10:38:06;3.70;;;2.63;;
12383;SDS011;6256;63.808;20.336;2024-02-16T10:40:41;2.27;;;1.97;;
12383;SDS011;6256;63.808;20.336;2024-02-16T10:43:08;4.60;;;3.30;;
12383;SDS011;6256;63.808;20.336;2024-02-16T10:45:36;5.50;;;2.50;;
12383;SDS011;6256;63.808;20.336;2024-02-16T10:48:03;2.13;;;1.93;;
12383;SDS011;6256;63.808;20.336;2024-02-16T10:50:30;3.47;;;2.60;;
12383;SDS011;6256;63.808;20.336;2024-02-16T10:53:00;4.00;;;2.53;;
12383;SDS011;6256;63.808;20.336;2024-02-16T10:55:40;4.23;;;2.50;;
12383;SDS011;6256;63.808;20.336;2024-02-16T10:58:07;3.23;;;2.30;;
12383;SDS011;6256;63.808;20.336;2024-02-16T11:00:34;4.70;;;2.63;;
12383;SDS011;6256;63.808;20.336;2024-02-16T11:03:01;2.77;;;2.23;;
12383;SDS011;6256;63.808;20.336;2024-02-16T11:05:31;2.83;;;2.30;;
12383;SDS011;6256;63.808;20.336;2024-02-16T11:08:04;4.63;;;2.20;;
12383;SDS011;6256;63.808;20.336;2024-02-16T11:10:30;4.43;;;2.43;;
12383;SDS011;6256;63.808;20.336;2024-02-16T11:13:02;4.63;;;2.30;;
12383;SDS011;6256;63.808;20.336;2024-02-16T11:15:33;3.30;;;2.40;;
12383;SDS011;6256;63.808;20.336;2024-02-16T11:18:00;2.53;;;2.33;;
12383;SDS011;6256;63.808;20.336;2024-02-16T11:20:26;3.90;;;2.60;;
12383;SDS011;6256;63.808;20.336;2024-02-16T11:22:52;2.03;;;1.57;;
12383;SDS011;6256;63.808;20.336;2024-02-16T11:25:19;3.47;;;2.23;;
12383;SDS011;6256;63.808;20.336;2024-02-16T11:27:55;2.40;;;2.20;;
12383;SDS011;6256;63.808;20.336;2024-02-16T11:30:21;3.73;;;1.70;;
12383;SDS011;6256;63.808;20.336;2024-02-16T11:32:47;1.80;;;1.60;;
12383;SDS011;6256;63.808;20.336;2024-02-16T11:35:12;2.93;;;2.63;;
12383;SDS011;6256;63.808;20.336;2024-02-16T11:37:38;4.17;;;2.47;;
12383;SDS011;6256;63.808;20.336;2024-02-16T11:40:04;2.17;;;1.40;;
12383;SDS011;6256;63.808;20.336;2024-02-16T11:42:33;2.63;;;2.20;;
12383;SDS011;6256;63.808;20.336;2024-02-16T11:45:00;2.80;;;2.07;;
12383;SDS011;6256;63.808;20.336;2024-02-16T11:47:26;2.67;;;2.20;;
12383;SDS011;6256;63.808;20.336;2024-02-16T11:50:04;1.70;;;1.57;;
12383;SDS011;6256;63.808;20.336;2024-02-16T11:52:40;1.70;;;1.60;;
12383;SDS011;6256;63.808;20.336;2024-02-16T11:55:10;2.80;;;2.07;;
12383;SDS011;6256;63.808;20.336;2024-02-16T11:57:36;2.00;;;1.60;;
12383;SDS011;6256;63.808;20.336;2024-02-16T12:00:03;1.73;;;1.57;;
12383;SDS011;6256;63.808;20.336;2024-02-16T12:02:36;2.47;;;1.73;;
12383;SDS011;6256;63.808;20.336;2024-02-16T12:05:02;2.17;;;1.97;;
12383;SDS011;6256;63.808;20.336;2024-02-16T12:07:28;1.80;;;1.70;;
12383;SDS011;6256;63.808;20.336;2024-02-16T12:09:55;1.30;;;1.20;;
12383;SDS011;6256;63.808;20.336;2024-02-16T12:12:22;2.67;;;1.60;;
12383;SDS011;6256;63.808;20.336;2024-02-16T12:14:48;1.43;;;1.33;;
12383;SDS011;6256;63.808;20.336;2024-02-16T12:17:14;2.43;;;1.90;;
12383;SDS011;6256;63.808;20.336;2024-02-16T12:19:43;2.00;;;1.80;;
12383;SDS011;6256;63.808;20.336;2024-02-16T12:22:10;1.83;;;1.57;;
12383;SDS011;6256;63.808;20.336;2024-02-16T12:24:36;1.60;;;1.50;;
12383;SDS011;6256;63.808;20.336;2024-02-16T12:27:05;1.73;;;1.60;;
12383;SDS011;6256;63.808;20.336;2024-02-16T12:29:30;1.60;;;1.50;;
12383;SDS011;6256;63.808;20.336;2024-02-16T12:31:56;1.37;;;1.30;;
12383;SDS011;6256;63.808;20.336;2024-02-16T12:34:22;1.53;;;1.43;;
12383;SDS011;6256;63.808;20.336;2024-02-16T12:36:48;1.70;;;1.60;;
12383;SDS011;6256;63.808;20.336;2024-02-16T12:39:14;1.20;;;1.10;;
12383;SDS011;6256;63.808;20.336;2024-02-16T12:41:40;1.30;;;1.20;;
12383;SDS011;6256;63.808;20.336;2024-02-16T12:44:08;2.47;;;1.63;;
12383;SDS011;6256;63.808;20.336;2024-02-16T12:46:33;2.53;;;1.80;;
12383;SDS011;6256;63.808;20.336;2024-02-16T12:48:59;0.80;;;0.80;;
12383;SDS011;6256;63.808;20.336;2024-02-16T12:51:25;1.57;;;1.40;;
12383;SDS011;6256;63.808;20.336;2024-02-16T12:53:51;2.53;;;1.73;;
12383;SDS011;6256;63.808;20.336;2024-02-16T12:56:17;1.40;;;1.13;;
12383;SDS011;6256;63.808;20.336;2024-02-16T12:58:43;0.93;;;0.93;;
12383;SDS011;6256;63.808;20.336;2024-02-16T13:01:09;1.80;;;1.57;;
12383;SDS011;6256;63.808;20.336;2024-02-16T13:03:36;1.07;;;0.93;;
12383;SDS011;6256;63.808;20.336;2024-02-16T13:06:02;1.30;;;1.17;;
12383;SDS011;6256;63.808;20.336;2024-02-16T13:08:29;1.10;;;1.00;;
12383;SDS011;6256;63.808;20.336;2024-02-16T13:10:55;2.30;;;1.20;;
12383;SDS011;6256;63.808;20.336;2024-02-16T13:13:21;1.33;;;1.10;;
12383;SDS011;6256;63.808;20.336;2024-02-16T13:15:47;1.97;;;1.17;;
12383;SDS011;6256;63.808;20.336;2024-02-16T13:18:13;2.97;;;1.87;;
12383;SDS011;6256;63.808;20.336;2024-02-16T13:20:40;1.17;;;1.07;;
12383;SDS011;6256;63.808;20.336;2024-02-16T13:23:05;2.07;;;1.00;;
12383;SDS011;6256;63.808;20.336;2024-02-16T13:25:31;2.60;;;1.20;;
12383;SDS011;6256;63.808;20.336;2024-02-16T13:27:57;0.83;;;0.83;;
12383;SDS011;6256;63.808;20.336;2024-02-16T13:30:24;0.90;;;0.90;;
12383;SDS011;6256;63.808;20.336;2024-02-16T13:32:52;0.87;;;0.80;;
12383;SDS011;6256;63.808;20.336;2024-02-16T13:35:17;0.60;;;0.60;;
12383;SDS011;6256;63.808;20.336;2024-02-16T13:37:43;1.27;;;1.10;;
12383;SDS011;6256;63.808;20.336;2024-02-16T13:40:09;1.07;;;0.60;;
12383;SDS011;6256;63.808;20.336;2024-02-16T13:42:39;0.70;;;0.70;;
12383;SDS011;6256;63.808;20.336;2024-02-16T13:45:06;1.00;;;0.73;;
12383;SDS011;6256;63.808;20.336;2024-02-16T13:47:32;0.80;;;0.80;;
12383;SDS011;6256;63.808;20.336;2024-02-16T13:49:58;0.80;;;0.80;;
12383;SDS011;6256;63.808;20.336;2024-02-16T13:52:25;1.07;;;1.00;;
12383;SDS011;6256;63.808;20.336;2024-02-16T13:54:51;0.80;;;0.80;;
12383;SDS011;6256;63.808;20.336;2024-02-16T13:57:17;0.57;;;0.57;;
12383;SDS011;6256;63.808;20.336;2024-02-16T13:59:44;0.73;;;0.70;;
12383;SDS011;6256;63.808;20.336;2024-02-16T14:02:10;0.80;;;0.80;;
12383;SDS011;6256;63.808;20.336;2024-02-16T14:04:40;1.17;;;0.93;;
12383;SDS011;6256;63.808;20.336;2024-02-16T14:07:06;0.57;;;0.57;;
12383;SDS011;6256;63.808;20.336;2024-02-16T14:09:31;0.70;;;0.70;;
12383;SDS011;6256;63.808;20.336;2024-02-16T14:11:57;0.60;;;0.60;;
12383;SDS011;6256;63.808;20.336;2024-02-16T14:14:24;1.20;;;0.67;;
12383;SDS011;6256;63.808;20.336;2024-02-16T14:16:50;1.03;;;0.60;;
12383;SDS011;6256;63.808;20.336;2024-02-16T14:19:16;1.07;;;0.63;;
12383;SDS011;6256;63.808;20.336;2024-02-16T14:21:45;0.40;;;0.40;;
12383;SDS011;6256;63.808;20.336;2024-02-16T14:24:14;0.73;;;0.73;;
12383;SDS011;6256;63.808;20.336;2024-02-16T14:26:41;0.70;;;0.70;;
12383;SDS011;6256;63.808;20.336;2024-02-16T14:29:07;0.73;;;0.73;;
12383;SDS011;6256;63.808;20.336;2024-02-16T14:31:33;0.67;;;0.60;;
12383;SDS011;6256;63.808;20.336;2024-02-16T14:33:59;0.80;;;0.80;;
12383;SDS011;6256;63.808;20.336;2024-02-16T14:36:25;0.50;;;0.50;;
12383;SDS011;6256;63.808;20.336;2024-02-16T14:38:51;0.67;;;0.67;;
12383;SDS011;6256;63.808;20.336;2024-02-16T14:41:17;0.63;;;0.63;;
12383;SDS011;6256;63.808;20.336;2024-02-16T14:43:43;0.50;;;0.50;;
12383;SDS011;6256;63.808;20.336;2024-02-16T14:46:08;0.77;;;0.73;;